Strona główna
METAR-TAF:

METAR-TAF

Lotnisko :

Porter County Municipal Airport

Valparaiso, Indiana, Stany Zjednoczone

Szerokość geograficzna: 41-27-11N, Długość geograficzna: 086-59-53W, wysokość: 234 m

Aktualna obserwacja pogody

Raport powstał 21 minut temu, godzina 13:56 UTC
Wiatr 9 kt od wschód
Temperatura 19°C
Wilgotność 56%
Ciśnienie 1026 hPa
Widzialność: 16.1 km
bezchmurnie

METAR: KVPZ 241356Z AUTO 09009KT 10SM CLR 19/10 A3030 RMK AO2 SLP257 T01890100

czas: 09:17 (14:17 UTC)


TAF: brakujący

Obserwacja i prognoza pogody dla ponad 4000 lotnisk (raport METAR i TAF).

Dostępne stacje oznaczono żółtymi i czerwonymi punktami na mapie.

Najedź kursorem aby zobaczyć nazwę stacji.

Kliknij aby zobaczyć obserwacje i prognozy pogody.

Aby zmienić mapę: kliknij na zielony przycisk z czarnym krzyżykiem, aby powiększyć; na zielony przycisk z myślnikiem, aby pomniejszyć; na zielone strzałki, aby przejść do map sąsiednich.


METAR-TAF: